| time (UTC) | temp F | wind direction | speed MPH | gust MPH | rain 1hr in | rain 24hr in | rain mn in | humidity % | barometer mb |
| 20260507145115 | 60 | 23 | 3.0 | 7.0 | 0.00 | 0.08 | 0.06 | 75 | 1011.7 |
| 20260507144114 | 61 | 13 | 2.0 | 8.0 | 0.00 | 0.08 | 0.06 | 72 | 1011.7 |
| 20260507143115 | 62 | 331 | 3.0 | 6.0 | 0.00 | 0.08 | 0.06 | 68 | 1011.6 |
| 20260507142114 | 62 | 19 | 3.0 | 7.0 | 0.00 | 0.08 | 0.06 | 66 | 1011.5 |
| 20260507141115 | 62 | 40 | 4.0 | 10.0 | 0.00 | 0.08 | 0.06 | 64 | 1011.5 |
| 20260507140114 | 62 | 26 | 5.0 | 10.0 | 0.00 | 0.08 | 0.06 | 64 | 1011.5 |
| 20260507135114 | 63 | 23 | 6.0 | 13.0 | 0.00 | 0.08 | 0.06 | 63 | 1011.5 |
| 20260507134115 | 63 | 13 | 3.0 | 7.0 | 0.00 | 0.08 | 0.06 | 61 | 1011.5 |
| 20260507133114 | 64 | 28 | 4.0 | 9.0 | 0.00 | 0.08 | 0.06 | 65 | 1011.5 |
| 20260507132114 | 63 | 32 | 4.0 | 8.0 | 0.00 | 0.08 | 0.06 | 63 | 1011.5 |
| 20260507131114 | 63 | 360 | 4.0 | 8.0 | 0.00 | 0.08 | 0.06 | 64 | 1011.5 |
| 20260507130114 | 61 | 34 | 4.0 | 9.0 | 0.00 | 0.08 | 0.06 | 66 | 1011.5 |
| 20260507125114 | 61 | 33 | 4.0 | 8.0 | 0.00 | 0.08 | 0.06 | 66 | 1011.5 |
| 20260507124114 | 61 | 22 | 4.0 | 9.0 | 0.00 | 0.08 | 0.06 | 68 | 1011.5 |
| 20260507123114 | 61 | 23 | 5.0 | 12.0 | 0.00 | 0.08 | 0.06 | 68 | 1011.4 |
| 20260507122114 | 61 | 30 | 5.0 | 11.0 | 0.00 | 0.08 | 0.06 | 69 | 1011.5 |
| 20260507121113 | 61 | 344 | 5.0 | 10.0 | 0.00 | 0.08 | 0.06 | 65 | 1011.4 |
| 20260507120113 | 62 | 319 | 3.0 | 11.0 | 0.00 | 0.08 | 0.06 | 63 | 1011.4 |
| 20260507115114 | 63 | 22 | 5.0 | 10.0 | 0.00 | 0.08 | 0.06 | 63 | 1011.4 |
| 20260507114113 | 64 | 346 | 6.0 | 15.0 | 0.00 | 0.08 | 0.06 | 63 | 1011.3 |
| 20260507113113 | 64 | 31 | 7.0 | 13.0 | 0.00 | 0.08 | 0.06 | 62 | 1011.4 |
| 20260507112113 | 64 | 347 | 5.0 | 12.0 | 0.00 | 0.08 | 0.06 | 61 | 1011.3 |
| 20260507111113 | 64 | 327 | 4.0 | 9.0 | 0.00 | 0.08 | 0.06 | 61 | 1011.4 |
| 20260507110113 | 63 | 47 | 5.0 | 10.0 | 0.00 | 0.08 | 0.06 | 62 | 1011.4 |
| 20260507105113 | 64 | 360 | 3.0 | 7.0 | 0.00 | 0.08 | 0.06 | 59 | 1011.5 |
| 20260507104113 | 63 | 12 | 3.0 | 7.0 | 0.00 | 0.08 | 0.06 | 62 | 1011.5 |
| 20260507103113 | 62 | 32 | 3.0 | 5.0 | 0.00 | 0.08 | 0.06 | 60 | 1011.6 |
| 20260507102113 | 61 | 32 | 3.0 | 5.0 | 0.00 | 0.08 | 0.06 | 63 | 1011.7 |
| 20260507101113 | 62 | 317 | 3.0 | 10.0 | 0.00 | 0.08 | 0.06 | 63 | 1011.8 |
| 20260507100113 | 61 | 70 | 1.0 | 5.0 | 0.00 | 0.08 | 0.06 | 64 | 1011.8 |
| 20260507095112 | 61 | 70 | 2.0 | 4.0 | 0.00 | 0.08 | 0.06 | 63 | 1011.9 |
| 20260507094113 | 60 | 70 | 1.0 | 4.0 | 0.00 | 0.08 | 0.06 | 66 | 1011.9 |
| 20260507093112 | 60 | 70 | 2.0 | 4.0 | 0.00 | 0.08 | 0.06 | 69 | 1012.0 |
| 20260507092112 | 59 | 70 | 1.0 | 4.0 | 0.00 | 0.08 | 0.06 | 69 | 1011.9 |
| 20260507091113 | 59 | 70 | 3.0 | 6.0 | 0.00 | 0.08 | 0.06 | 73 | 1011.9 |
| 20260507090112 | 58 | 70 | 2.0 | 4.0 | 0.00 | 0.08 | 0.06 | 74 | 1011.9 |
| 20260507085113 | 57 | 70 | 0.0 | 3.0 | 0.00 | 0.08 | 0.06 | 77 | 1011.9 |
| 20260507084112 | 56 | 70 | 0.0 | 2.0 | 0.00 | 0.08 | 0.06 | 77 | 1011.9 |
| 20260507083112 | 56 | 70 | 1.0 | 4.0 | 0.00 | 0.08 | 0.06 | 80 | 1011.9 |
| 20260507082112 | 56 | 70 | 0.0 | 1.0 | 0.00 | 0.08 | 0.06 | 82 | 1011.8 |
| 20260507081112 | 55 | 70 | 1.0 | 2.0 | 0.00 | 0.08 | 0.06 | 84 | 1011.8 |
| 20260507080112 | 54 | 70 | 0.0 | 2.0 | 0.00 | 0.08 | 0.06 | 87 | 1011.9 |
| 20260507075112 | 53 | 70 | 1.0 | 3.0 | 0.00 | 0.08 | 0.06 | 89 | 1011.9 |
| 20260507074112 | 53 | 70 | 1.0 | 4.0 | 0.00 | 0.08 | 0.06 | 90 | 1011.9 |
| 20260507073112 | 52 | 70 | 0.0 | 3.0 | 0.00 | 0.08 | 0.06 | 91 | 1011.9 |
| 20260507072112 | 52 | 70 | 2.0 | 4.0 | 0.00 | 0.08 | 0.06 | 91 | 1011.8 |
| 20260507071112 | 52 | 70 | 2.0 | 4.0 | 0.00 | 0.08 | 0.06 | 91 | 1011.9 |
| 20260507070111 | 51 | 70 | 1.0 | 3.0 | 0.00 | 0.08 | 0.06 | 91 | 1011.8 |
| 20260507065111 | 51 | 70 | 0.0 | 2.0 | 0.00 | 0.08 | 0.06 | 91 | 1011.6 |
| 20260507064111 | 51 | 70 | 0.0 | 2.0 | 0.00 | 0.08 | 0.06 | 91 | 1011.6 |
| 20260507063111 | 51 | 70 | 0.0 | 1.0 | 0.00 | 0.08 | 0.06 | 91 | 1011.6 |
| 20260507062111 | 50 | 70 | 0.0 | 0.0 | 0.00 | 0.08 | 0.06 | 91 | 1011.5 |
| 20260507061111 | 50 | 70 | 0.0 | 0.0 | 0.00 | 0.08 | 0.06 | 90 | 1011.5 |
| 20260507060111 | 50 | 70 | 0.0 | 3.0 | 0.00 | 0.08 | 0.06 | 90 | 1011.4 |
| 20260507055112 | 49 | 70 | 0.0 | 2.0 | 0.00 | 0.08 | 0.06 | 90 | 1011.3 |
| 20260507054111 | 49 | 70 | 0.0 | 3.0 | 0.00 | 0.08 | 0.06 | 90 | 1011.2 |
| 20260507053111 | 49 | 70 | 1.0 | 4.0 | 0.00 | 0.08 | 0.06 | 90 | 1011.1 |
| 20260507052111 | 49 | 70 | 0.0 | 1.0 | 0.00 | 0.08 | 0.06 | 90 | 1011.0 |
| 20260507051111 | 49 | 70 | 1.0 | 3.0 | 0.00 | 0.08 | 0.06 | 90 | 1010.9 |
| 20260507050111 | 49 | 70 | 1.0 | 5.0 | 0.00 | 0.08 | 0.06 | 89 | 1010.8 |
| 20260507045111 | 49 | 69 | 1.0 | 2.0 | 0.00 | 0.08 | 0.06 | 89 | 1010.7 |
| 20260507044111 | 49 | 69 | 0.0 | 2.0 | 0.00 | 0.08 | 0.06 | 89 | 1010.7 |
| 20260507043111 | 48 | 69 | 0.0 | 2.0 | 0.00 | 0.08 | 0.06 | 89 | 1010.6 |
| 20260507042110 | 48 | 69 | 1.0 | 3.0 | 0.00 | 0.08 | 0.06 | 89 | 1010.4 |
| 20260507041110 | 48 | 69 | 1.0 | 4.0 | 0.00 | 0.08 | 0.06 | 89 | 1010.2 |
| 20260507040111 | 48 | 69 | 2.0 | 4.0 | 0.00 | 0.08 | 0.06 | 89 | 1010.2 |
| 20260507035111 | 48 | 69 | 2.0 | 6.0 | 0.00 | 0.08 | 0.06 | 88 | 1010.2 |
| 20260507034110 | 48 | 69 | 0.0 | 0.0 | 0.00 | 0.08 | 0.06 | 88 | 1010.2 |
| 20260507033110 | 48 | 69 | 0.0 | 0.0 | 0.00 | 0.08 | 0.06 | 88 | 1010.2 |
| 20260507032111 | 48 | 69 | 0.0 | 0.0 | 0.00 | 0.08 | 0.06 | 88 | 1010.1 |
| 20260507031110 | 48 | 69 | 0.0 | 0.0 | 0.00 | 0.08 | 0.06 | 88 | 1010.0 |
| 20260507030111 | 49 | 69 | 0.0 | 0.0 | 0.00 | 0.08 | 0.06 | 88 | 1010.0 |
| 20260507025110 | 49 | 69 | 0.0 | 0.0 | 0.00 | 0.08 | 0.06 | 88 | 1009.9 |
| 20260507024110 | 49 | 69 | 0.0 | 0.0 | 0.00 | 0.08 | 0.06 | 88 | 1009.9 |
| 20260507023110 | 49 | 69 | 0.0 | 0.0 | 0.00 | 0.08 | 0.06 | 88 | 1009.9 |
| 20260507022110 | 49 | 69 | 0.0 | 0.0 | 0.00 | 0.08 | 0.06 | 88 | 1009.9 |
| 20260507021110 | 49 | 65 | 1.0 | 3.0 | 0.00 | 0.08 | 0.06 | 87 | 1009.8 |
| 20260507020110 | 49 | 65 | 1.0 | 3.0 | 0.00 | 0.08 | 0.06 | 87 | 1009.7 |
| 20260507015110 | 50 | 65 | 0.0 | 1.0 | 0.00 | 0.08 | 0.06 | 87 | 1009.7 |
| 20260507014109 | 50 | 65 | 0.0 | 0.0 | 0.00 | 0.08 | 0.06 | 87 | 1009.5 |
| 20260507013109 | 50 | 65 | 0.0 | 0.0 | 0.00 | 0.08 | 0.06 | 87 | 1009.6 |
| 20260507012109 | 50 | 65 | 0.0 | 0.0 | 0.00 | 0.08 | 0.06 | 87 | 1009.5 |
| 20260507011109 | 51 | 65 | 3.0 | 5.0 | 0.00 | 0.08 | 0.06 | 87 | 1009.4 |
| 20260507010114 | 51 | 65 | 1.0 | 3.0 | 0.00 | 0.08 | 0.06 | 87 | 1009.3 |
| 20260507005114 | 51 | 65 | 1.0 | 3.0 | 0.00 | 0.08 | 0.06 | 86 | 1009.4 |
| 20260507004114 | 51 | 65 | 1.0 | 7.0 | 0.00 | 0.08 | 0.06 | 86 | 1009.3 |
| 20260507003114 | 51 | 60 | 0.0 | 0.0 | 0.01 | 0.08 | 0.06 | 86 | 1009.3 |
| 20260507002114 | 51 | 61 | 0.0 | 0.0 | 0.02 | 0.08 | 0.06 | 85 | 1009.2 |
| 20260507001114 | 51 | 60 | 0.0 | 0.0 | 0.04 | 0.08 | 0.06 | 85 | 1009.3 |
| 20260507000114 | 51 | 60 | 1.0 | 4.0 | 0.05 | 0.08 | 0.06 | 85 | 1009.3 |
| 20260506235114 | 51 | 60 | 1.0 | 3.0 | 0.06 | 0.08 | 0.06 | 85 | 1009.3 |
| 20260506234114 | 51 | 60 | 1.0 | 3.0 | 0.06 | 0.08 | 0.06 | 85 | 1009.4 |
| 20260506233114 | 51 | 60 | 0.0 | 0.0 | 0.05 | 0.07 | 0.05 | 85 | 1009.4 |
| 20260506232114 | 51 | 60 | 0.0 | 0.0 | 0.04 | 0.06 | 0.04 | 84 | 1009.4 |
| 20260506231114 | 51 | 60 | 0.0 | 0.0 | 0.02 | 0.04 | 0.02 | 84 | 1009.3 |
| 20260506230114 | 51 | 60 | 0.0 | 0.0 | 0.01 | 0.03 | 0.01 | 84 | 1009.3 |
| 20260506225116 | 51 | 60 | 0.0 | 0.0 | 0.00 | 0.02 | 0.00 | 84 | 1009.1 |
| 20260506224114 | 51 | 60 | 0.0 | 0.0 | 0.00 | 0.02 | 0.00 | 84 | 1009.1 |
| 20260506223113 | 51 | 60 | 0.0 | 0.0 | 0.00 | 0.02 | 0.00 | 83 | 1009.0 |
| 20260506222114 | 51 | 61 | 0.0 | 0.0 | 0.00 | 0.02 | 0.00 | 83 | 1009.0 |
| 20260506221113 | 51 | 60 | 0.0 | 0.0 | 0.00 | 0.02 | 0.00 | 83 | 1009.0 |
| 20260506220113 | 51 | 60 | 0.0 | 0.0 | 0.00 | 0.02 | 0.00 | 83 | 1008.9 |
| 20260506215113 | 51 | 61 | 0.0 | 0.0 | 0.00 | 0.02 | 0.02 | 83 | 1008.8 |
| 20260506214113 | 51 | 60 | 0.0 | 0.0 | 0.00 | 0.02 | 0.02 | 83 | 1008.7 |
| 20260506213113 | 51 | 60 | 0.0 | 0.0 | 0.00 | 0.02 | 0.02 | 82 | 1008.6 |
| 20260506212113 | 51 | 60 | 0.0 | 0.0 | 0.00 | 0.02 | 0.02 | 82 | 1008.7 |
| 20260506211113 | 51 | 60 | 0.0 | 0.0 | 0.00 | 0.02 | 0.02 | 82 | 1008.6 |
| 20260506210113 | 51 | 60 | 0.0 | 0.0 | 0.00 | 0.02 | 0.02 | 82 | 1008.6 |
| 20260506205113 | 51 | 60 | 0.0 | 0.0 | 0.00 | 0.02 | 0.02 | 82 | 1008.5 |
| 20260506204113 | 51 | 60 | 0.0 | 0.0 | 0.00 | 0.02 | 0.02 | 81 | 1008.6 |
| 20260506203113 | 52 | 60 | 0.0 | 0.0 | 0.00 | 0.02 | 0.02 | 81 | 1008.5 |
| 20260506202113 | 52 | 60 | 0.0 | 0.0 | 0.00 | 0.02 | 0.02 | 80 | 1008.4 |
| 20260506201113 | 52 | 60 | 0.0 | 0.0 | 0.00 | 0.02 | 0.02 | 80 | 1008.2 |
| 20260506200112 | 52 | 60 | 0.0 | 0.0 | 0.00 | 0.02 | 0.02 | 80 | 1008.2 |
| 20260506195113 | 52 | 60 | 0.0 | 0.0 | 0.00 | 0.02 | 0.02 | 79 | 1008.2 |
| 20260506194112 | 52 | 60 | 0.0 | 0.0 | 0.00 | 0.02 | 0.02 | 79 | 1008.1 |
| 20260506193112 | 52 | 60 | 0.0 | 0.0 | 0.00 | 0.02 | 0.02 | 78 | 1007.9 |
| 20260506192112 | 53 | 60 | 0.0 | 0.0 | 0.00 | 0.02 | 0.02 | 78 | 1007.8 |
| 20260506191112 | 53 | 60 | 0.0 | 0.0 | 0.00 | 0.02 | 0.02 | 78 | 1007.8 |
| 20260506190112 | 53 | 61 | 0.0 | 0.0 | 0.00 | 0.02 | 0.02 | 78 | 1007.6 |
| 20260506185112 | 53 | 60 | 0.0 | 1.0 | 0.00 | 0.02 | 0.02 | 78 | 1007.4 |
| 20260506184112 | 54 | 60 | 0.0 | 0.0 | 0.00 | 0.02 | 0.02 | 78 | 1007.2 |
| 20260506183112 | 54 | 60 | 0.0 | 0.0 | 0.00 | 0.02 | 0.02 | 78 | 1007.0 |
| 20260506182112 | 54 | 61 | 1.0 | 5.0 | 0.00 | 0.02 | 0.02 | 78 | 1006.9 |
| 20260506181112 | 54 | 60 | 1.0 | 3.0 | 0.00 | 0.02 | 0.02 | 78 | 1006.9 |
| 20260506180112 | 54 | 61 | 2.0 | 4.0 | 0.00 | 0.02 | 0.02 | 78 | 1006.7 |
| 20260506175111 | 54 | 61 | 2.0 | 5.0 | 0.00 | 0.02 | 0.02 | 78 | 1006.6 |
| 20260506174111 | 54 | 61 | 1.0 | 4.0 | 0.00 | 0.02 | 0.02 | 77 | 1006.7 |
| 20260506173112 | 54 | 61 | 3.0 | 6.0 | 0.00 | 0.02 | 0.02 | 77 | 1006.6 |
| 20260506172111 | 55 | 43 | 2.0 | 8.0 | 0.00 | 0.02 | 0.02 | 78 | 1006.4 |
| 20260506171111 | 55 | 46 | 4.0 | 8.0 | 0.00 | 0.02 | 0.02 | 78 | 1006.3 |
| 20260506170111 | 55 | 51 | 5.0 | 11.0 | 0.00 | 0.02 | 0.02 | 78 | 1006.2 |
| 20260506165111 | 55 | 49 | 3.0 | 7.0 | 0.00 | 0.02 | 0.02 | 78 | 1006.0 |
| 20260506164111 | 55 | 58 | 1.0 | 3.0 | 0.00 | 0.02 | 0.02 | 79 | 1005.9 |
| 20260506163111 | 55 | 59 | 2.0 | 5.0 | 0.00 | 0.02 | 0.02 | 79 | 1005.7 |
| 20260506162111 | 55 | 65 | 1.0 | 4.0 | 0.00 | 0.02 | 0.02 | 78 | 1005.5 |
| 20260506161111 | 55 | 65 | 0.0 | 2.0 | 0.02 | 0.02 | 0.02 | 78 | 1005.5 |
| 20260506160111 | 55 | 65 | 2.0 | 7.0 | 0.02 | 0.02 | 0.02 | 78 | 1005.5 |
| 20260506155111 | 55 | 59 | 3.0 | 7.0 | 0.02 | 0.02 | 0.02 | 77 | 1005.7 |
| 20260506154111 | 55 | 46 | 5.0 | 9.0 | 0.02 | 0.02 | 0.02 | 76 | 1005.8 |
| 20260506153110 | 55 | 212 | 3.0 | 6.0 | 0.02 | 0.02 | 0.02 | 73 | 1006.1 |